Time;durP1;ratioP1;P1;durP2;ratioP2;P2;SDS_P1;SDS_P2;PMS_P1;PMS_P2;Temp;Humidity;BMP_temperature;BMP_pressure;BME280_temperature;BME280_humidity;BME280_pressure;Samples;Min_cycle;Max_cycle;Signal;HPM_P1;HPM_P2
2021/03/06 00:01:51;;;;;;;29.38;13.18;;;6.20;99.90;;;;;;5034642;28;20492;-73
2021/03/06 00:04:17;;;;;;;24.55;13.75;;;6.10;99.90;;;;;;5034634;28;20037;-73
2021/03/06 00:06:43;;;;;;;26.98;13.27;;;6.00;99.90;;;;;;5034639;28;20117;-73
2021/03/06 00:09:08;;;;;;;24.27;13.73;;;6.00;99.90;;;;;;5034956;28;20508;-73
2021/03/06 00:11:34;;;;;;;29.40;16.67;;;6.10;99.90;;;;;;5034702;28;20067;-73
2021/03/06 00:14:00;;;;;;;32.72;17.92;;;6.00;99.90;;;;;;5016763;28;20087;-73
2021/03/06 00:16:26;;;;;;;30.50;18.05;;;6.00;99.90;;;;;;5034899;28;20032;-73
2021/03/06 00:18:52;;;;;;;28.75;16.02;;;6.00;99.90;;;;;;5034873;28;20107;-73
2021/03/06 00:21:17;;;;;;;26.65;15.27;;;6.10;99.90;;;;;;5034556;28;20043;-73
2021/03/06 00:23:43;;;;;;;30.50;16.33;;;6.10;99.90;;;;;;5034517;28;20052;-73
2021/03/06 00:26:09;;;;;;;29.98;15.52;;;6.00;99.90;;;;;;5034742;28;20176;-73
2021/03/06 00:28:35;;;;;;;28.20;15.00;;;6.00;99.90;;;;;;5034492;28;20389;-73
2021/03/06 00:31:01;;;;;;;27.35;13.93;;;5.90;99.90;;;;;;5034744;28;20045;-73
2021/03/06 00:33:26;;;;;;;25.23;14.57;;;5.80;99.90;;;;;;5034440;28;20508;-73
2021/03/06 00:35:52;;;;;;;28.30;14.20;;;5.70;99.90;;;;;;5034492;28;20042;-73
2021/03/06 00:38:18;;;;;;;30.98;14.35;;;5.70;99.90;;;;;;5034789;28;20052;-73
2021/03/06 00:40:44;;;;;;;25.92;13.85;;;5.60;99.90;;;;;;5034552;28;20091;-73
2021/03/06 00:43:10;;;;;;;27.45;14.75;;;5.60;99.90;;;;;;5034478;28;20068;-73
2021/03/06 00:45:36;;;;;;;22.55;13.60;;;5.60;99.90;;;;;;5034165;28;20488;-73
2021/03/06 00:48:01;;;;;;;31.98;14.38;;;5.60;99.90;;;;;;5035182;28;20481;-73
2021/03/06 00:50:35;;;;;;;31.85;14.77;;;5.50;99.90;;;;;;5034266;28;20026;-73
2021/03/06 00:53:01;;;;;;;26.52;14.30;;;5.40;99.90;;;;;;5034316;28;20040;-73
2021/03/06 00:55:27;;;;;;;35.20;15.05;;;5.30;99.90;;;;;;5034610;28;20041;-73
2021/03/06 00:57:53;;;;;;;27.23;14.35;;;5.20;99.90;;;;;;5018536;28;20124;-73
2021/03/06 01:00:19;;;;;;;31.42;15.63;;;5.20;99.90;;;;;;5038066;28;20049;-73
2021/03/06 01:02:45;;;;;;;25.30;11.93;;;5.20;99.90;;;;;;5038464;28;20049;-73
2021/03/06 01:05:12;;;;;;;21.13;12.98;;;5.20;99.90;;;;;;5038217;28;20041;-73
2021/03/06 01:07:37;;;;;;;25.65;12.27;;;5.10;99.90;;;;;;5037670;28;20044;-73
2021/03/06 01:10:10;;;;;;;19.38;12.15;;;5.20;99.90;;;;;;5037893;28;20037;-73
2021/03/06 01:12:36;;;;;;;24.38;12.50;;;5.20;99.90;;;;;;5036155;28;20046;-73
2021/03/06 01:15:03;;;;;;;23.60;12.63;;;5.10;99.90;;;;;;5037781;28;20037;-73
2021/03/06 01:17:28;;;;;;;25.23;14.73;;;5.20;99.90;;;;;;5019762;28;20077;-73
2021/03/06 01:19:54;;;;;;;29.15;17.05;;;5.20;99.90;;;;;;5019854;28;20114;-73
2021/03/06 01:22:20;;;;;;;29.77;14.82;;;5.00;99.90;;;;;;5019901;28;20045;-73
2021/03/06 01:24:49;;;;;;;31.70;15.52;;;4.90;99.90;;;;;;5037400;28;20135;-73
2021/03/06 01:27:14;;;;;;;28.00;15.00;;;5.10;99.90;;;;;;5019491;28;20127;-73
2021/03/06 01:29:40;;;;;;;24.08;13.48;;;5.10;99.90;;;;;;5037282;28;20128;-73
2021/03/06 01:32:06;;;;;;;26.83;14.65;;;5.00;99.90;;;;;;5037301;28;20067;-73
2021/03/06 01:34:32;;;;;;;31.58;14.50;;;5.00;99.90;;;;;;5037036;28;20079;-73
2021/03/06 01:36:58;;;;;;;20.83;12.75;;;4.90;99.90;;;;;;5037181;28;20412;-73
2021/03/06 01:39:24;;;;;;;19.48;13.20;;;4.90;99.90;;;;;;5036910;28;20136;-73
2021/03/06 01:41:50;;;;;;;24.73;12.55;;;4.90;99.90;;;;;;5037221;28;20582;-73
2021/03/06 01:44:16;;;;;;;21.52;11.70;;;4.80;99.90;;;;;;5019319;28;20124;-73
2021/03/06 01:46:43;;;;;;;19.30;11.93;;;4.80;99.90;;;;;;5037310;28;20080;-73
2021/03/06 01:49:09;;;;;;;22.05;11.88;;;4.80;99.90;;;;;;5037341;28;20049;-73
2021/03/06 01:51:35;;;;;;;24.25;12.15;;;4.70;99.90;;;;;;5037185;28;20056;-73
2021/03/06 01:54:03;;;;;;;22.15;12.68;;;4.70;99.90;;;;;;5036892;28;20119;-73
2021/03/06 01:56:32;;;;;;;23.40;12.30;;;4.80;99.90;;;;;;5037159;28;20071;-73
2021/03/06 01:58:59;;;;;;;24.73;13.85;;;4.90;99.90;;;;;;5036735;28;20048;-73
2021/03/06 02:01:25;;;;;;;22.15;14.38;;;5.00;99.90;;;;;;5037025;28;20044;-73
2021/03/06 02:03:51;;;;;;;21.70;13.82;;;5.00;99.90;;;;;;5037539;28;20033;-73
2021/03/06 02:06:18;;;;;;;25.23;13.23;;;4.90;99.90;;;;;;5036967;28;20048;-73
2021/03/06 02:08:45;;;;;;;26.45;13.20;;;4.80;99.90;;;;;;5036110;28;20057;-74
2021/03/06 02:11:18;;;;;;;24.13;13.13;;;4.80;99.90;;;;;;5037152;28;20511;-74
2021/03/06 02:14:15;;;;;;;22.63;12.48;;;4.80;99.90;;;;;;5036493;28;20033;-73
2021/03/06 02:16:44;;;;;;;26.23;12.20;;;4.70;99.90;;;;;;5036710;28;20038;-73
2021/03/06 02:19:47;;;;;;;22.60;12.48;;;4.60;99.90;;;;;;5037257;28;20095;-73
2021/03/06 02:22:31;;;;;;;24.63;12.95;;;4.50;99.90;;;;;;5036582;28;20116;-74
2021/03/06 02:25:16;;;;;;;21.48;11.88;;;4.50;99.90;;;;;;5036794;28;20120;-74
2021/03/06 02:28:03;;;;;;;24.60;12.52;;;4.40;99.90;;;;;;5037333;28;20469;-73
2021/03/06 02:30:30;;;;;;;24.00;11.70;;;4.40;99.90;;;;;;5036502;28;20493;-74
2021/03/06 02:32:58;;;;;;;19.90;11.68;;;4.40;99.90;;;;;;5036222;28;20087;-73
2021/03/06 02:35:30;;;;;;;25.20;12.60;;;4.30;99.90;;;;;;5036548;28;20037;-74
2021/03/06 02:38:10;;;;;;;27.27;13.00;;;4.40;99.90;;;;;;5037276;28;20037;-73
2021/03/06 02:40:40;;;;;;;25.58;12.02;;;4.40;99.90;;;;;;5036369;28;20493;-73
2021/03/06 02:43:09;;;;;;;20.55;11.85;;;4.40;99.90;;;;;;5036449;28;20082;-74
2021/03/06 02:45:36;;;;;;;19.90;11.98;;;4.40;99.90;;;;;;5036097;28;20034;-74
2021/03/06 02:48:03;;;;;;;21.50;11.93;;;4.40;99.90;;;;;;5036786;28;20034;-73
2021/03/06 02:50:29;;;;;;;20.75;11.68;;;4.40;99.90;;;;;;5036375;28;20103;-73
2021/03/06 02:52:55;;;;;;;21.10;12.13;;;4.30;99.90;;;;;;5034891;28;20128;-73
2021/03/06 02:55:21;;;;;;;23.05;11.57;;;4.40;99.90;;;;;;5036269;28;20124;-73
2021/03/06 02:58:18;;;;;;;19.27;11.77;;;4.30;99.90;;;;;;5036588;28;20041;-73
2021/03/06 03:00:47;;;;;;;20.55;11.27;;;4.30;99.90;;;;;;5036104;28;20512;-73
2021/03/06 03:03:32;;;;;;;20.95;11.18;;;4.30;99.90;;;;;;5035790;28;20037;-73
2021/03/06 03:06:14;;;;;;;19.30;11.40;;;4.20;99.90;;;;;;5017771;28;20127;-73
2021/03/06 03:09:00;;;;;;;23.35;12.38;;;4.20;99.90;;;;;;5018924;28;20485;-73
2021/03/06 03:11:34;;;;;;;22.30;12.25;;;4.10;99.90;;;;;;5035817;28;20108;-73
2021/03/06 03:14:03;;;;;;;20.33;11.73;;;4.10;99.90;;;;;;5035712;28;20550;-73
2021/03/06 03:16:49;;;;;;;21.88;11.60;;;4.10;99.90;;;;;;5035786;28;20041;-73
2021/03/06 03:19:30;;;;;;;23.10;11.98;;;4.00;99.90;;;;;;5035845;28;20049;-73
2021/03/06 03:21:58;;;;;;;;;;;3.90;99.90;;;;;;5036271;28;20041;-73
2021/03/06 03:24:25;;;;;;;21.80;12.45;;;4.00;99.90;;;;;;5035904;28;19912;-73
2021/03/06 03:26:53;;;;;;;21.67;11.85;;;4.00;99.90;;;;;;5035856;28;20112;-73
2021/03/06 03:29:19;;;;;;;23.50;11.93;;;4.00;99.90;;;;;;5033704;28;20099;-73
2021/03/06 03:31:50;;;;;;;20.73;12.30;;;3.90;99.90;;;;;;5035345;28;20029;-73
2021/03/06 03:34:20;;;;;;;26.52;12.93;;;3.90;99.90;;;;;;5017667;28;20037;-73
2021/03/06 03:36:48;;;;;;;24.13;12.55;;;3.80;99.90;;;;;;5035700;28;20038;-73
2021/03/06 03:39:14;;;;;;;24.63;13.45;;;3.80;99.90;;;;;;5035050;28;20049;-73
2021/03/06 03:41:40;;;;;;;23.00;11.43;;;3.80;99.90;;;;;;5035137;28;20037;-73
2021/03/06 03:44:07;;;;;;;23.70;11.77;;;3.70;99.90;;;;;;5035723;28;20388;-73
2021/03/06 03:46:34;;;;;;;24.95;10.75;;;3.70;99.90;;;;;;5035391;28;20108;-73
2021/03/06 03:49:04;;;;;;;18.88;12.23;;;3.60;99.90;;;;;;5035643;28;20057;-73
2021/03/06 03:51:32;;;;;;;22.87;11.60;;;3.70;99.90;;;;;;5017866;28;20508;-74
2021/03/06 03:53:59;;;;;;;20.17;10.90;;;3.70;99.90;;;;;;5035015;28;20037;-74
2021/03/06 03:56:26;;;;;;;21.80;11.48;;;3.70;99.90;;;;;;5034888;28;20118;-73
2021/03/06 03:58:52;;;;;;;22.55;11.15;;;3.70;99.90;;;;;;5016934;28;20050;-73
2021/03/06 04:01:18;;;;;;;20.90;10.75;;;3.70;99.90;;;;;;5035108;28;20049;-73
2021/03/06 04:03:44;;;;;;;21.90;11.20;;;3.50;99.90;;;;;;5035063;28;20431;-73
2021/03/06 04:06:10;;;;;;;24.98;11.43;;;3.40;99.90;;;;;;5034922;28;20137;-73
2021/03/06 04:08:35;;;;;;;22.23;11.55;;;3.40;99.90;;;;;;5035234;28;20061;-73
2021/03/06 04:11:01;;;;;;;23.65;11.85;;;3.50;99.90;;;;;;5017385;28;20084;-73
2021/03/06 04:13:27;;;;;;;19.58;10.95;;;3.60;99.90;;;;;;5034181;28;20477;-73
2021/03/06 04:15:53;;;;;;;19.15;10.57;;;3.50;99.90;;;;;;5035003;28;20566;-73
2021/03/06 04:18:19;;;;;;;18.40;11.07;;;3.50;99.90;;;;;;5034616;28;20038;-73
2021/03/06 04:20:45;;;;;;;18.40;10.80;;;3.50;99.90;;;;;;5034585;28;20041;-73
2021/03/06 04:23:11;;;;;;;17.35;11.13;;;3.40;99.90;;;;;;5034838;28;20095;-74
2021/03/06 04:25:37;;;;;;;22.00;11.02;;;3.40;99.90;;;;;;5034585;28;20393;-73
2021/03/06 04:28:03;;;;;;;21.63;11.18;;;3.30;99.90;;;;;;5033956;28;20030;-73
2021/03/06 04:30:29;;;;;;;19.85;10.82;;;3.30;99.90;;;;;;5033490;28;20038;-73
2021/03/06 04:32:54;;;;;;;20.95;11.32;;;3.40;99.90;;;;;;5034264;28;20033;-73
2021/03/06 04:35:20;;;;;;;24.52;11.35;;;3.40;99.90;;;;;;5035010;28;20380;-73
2021/03/06 04:37:46;;;;;;;21.15;11.40;;;3.30;99.90;;;;;;5034677;28;20044;-73
2021/03/06 04:40:14;;;;;;;21.27;12.60;;;3.30;99.90;;;;;;5016151;28;20597;-74
2021/03/06 04:42:40;;;;;;;29.65;12.68;;;3.30;99.90;;;;;;5034017;28;20041;-73
2021/03/06 04:45:07;;;;;;;24.45;11.65;;;3.40;99.90;;;;;;5034209;28;20042;-73
2021/03/06 04:47:34;;;;;;;30.30;13.88;;;3.50;99.90;;;;;;5034027;28;20099;-73
2021/03/06 04:50:00;;;;;;;25.33;13.40;;;3.40;99.90;;;;;;5034398;28;20110;-73
2021/03/06 04:52:26;;;;;;;23.83;13.20;;;3.40;99.90;;;;;;5016276;28;20045;-73
2021/03/06 04:54:51;;;;;;;26.30;12.70;;;3.40;99.90;;;;;;5034393;28;20037;-73
2021/03/06 04:57:17;;;;;;;31.42;12.77;;;3.40;99.90;;;;;;5034072;28;20095;-73
2021/03/06 04:59:43;;;;;;;26.95;12.60;;;3.40;99.90;;;;;;5034021;28;20405;-74
2021/03/06 05:02:10;;;;;;;22.17;11.88;;;3.30;99.90;;;;;;5034480;28;20057;-73
2021/03/06 05:04:36;;;;;;;16.17;10.38;;;3.20;99.90;;;;;;5034235;28;20060;-73
2021/03/06 05:07:02;;;;;;;21.73;10.73;;;3.20;99.90;;;;;;5033505;28;20096;-73
2021/03/06 05:09:28;;;;;;;18.58;10.15;;;3.20;99.90;;;;;;5035384;28;20053;-73
2021/03/06 05:11:54;;;;;;;20.42;11.73;;;3.10;99.90;;;;;;5016666;28;20433;-73
2021/03/06 05:14:20;;;;;;;16.15;10.13;;;3.00;99.90;;;;;;5033874;28;20040;-73
2021/03/06 05:16:46;;;;;;;28.48;11.52;;;3.10;99.90;;;;;;5033039;28;20076;-73
2021/03/06 05:19:12;;;;;;;15.38;10.57;;;2.90;99.90;;;;;;5033633;28;20464;-73
2021/03/06 05:21:38;;;;;;;20.08;11.15;;;3.00;99.90;;;;;;5033065;28;20455;-73
2021/03/06 05:24:05;;;;;;;22.83;11.45;;;2.90;99.90;;;;;;5033318;28;20041;-73
2021/03/06 05:26:31;;;;;;;22.35;11.68;;;2.90;99.90;;;;;;5033166;28;20037;-73
2021/03/06 05:28:57;;;;;;;23.33;12.80;;;2.90;99.90;;;;;;5033210;28;20045;-73
2021/03/06 05:31:22;;;;;;;20.67;12.02;;;2.90;99.90;;;;;;5034221;28;20043;-73
2021/03/06 05:33:48;;;;;;;26.88;13.68;;;3.00;99.90;;;;;;5033605;28;20067;-73
2021/03/06 05:36:14;;;;;;;22.33;12.25;;;2.90;99.90;;;;;;5034051;28;20520;-73
2021/03/06 05:38:40;;;;;;;21.25;11.55;;;2.80;99.90;;;;;;5034134;28;20395;-73
2021/03/06 05:41:06;;;;;;;18.50;12.43;;;2.90;99.90;;;;;;5033917;28;20578;-74
2021/03/06 05:43:33;;;;;;;18.50;11.18;;;2.90;99.90;;;;;;5033804;28;20095;-74
2021/03/06 05:45:59;;;;;;;23.95;11.50;;;2.90;99.90;;;;;;5037679;28;20477;-73
2021/03/06 05:48:25;;;;;;;20.77;11.55;;;2.90;99.90;;;;;;5037979;28;20037;-73
2021/03/06 05:50:52;;;;;;;23.27;11.30;;;2.90;99.90;;;;;;5037581;28;20034;-74
2021/03/06 05:53:21;;;;;;;18.70;10.63;;;2.90;99.90;;;;;;5036993;28;20037;-74
2021/03/06 05:55:56;;;;;;;20.20;11.15;;;2.90;99.90;;;;;;5037643;28;20515;-73
2021/03/06 05:58:22;;;;;;;21.15;11.38;;;2.90;99.90;;;;;;5037051;28;20385;-73
2021/03/06 06:00:49;;;;;;;23.67;11.60;;;2.80;99.90;;;;;;5037307;28;20044;-73
2021/03/06 06:03:18;;;;;;;20.63;11.07;;;2.90;99.90;;;;;;5037252;28;20489;-73
2021/03/06 06:05:47;;;;;;;24.38;11.02;;;2.70;99.90;;;;;;5037243;28;20045;-73
2021/03/06 06:08:14;;;;;;;16.85;10.75;;;2.70;99.90;;;;;;5036862;28;20049;-73
2021/03/06 06:10:40;;;;;;;20.95;11.40;;;2.70;99.90;;;;;;5036588;28;20076;-73
2021/03/06 06:13:05;;;;;;;18.20;11.90;;;2.70;99.90;;;;;;5036554;28;20056;-73
2021/03/06 06:15:31;;;;;;;20.95;11.48;;;2.80;99.90;;;;;;5036563;28;20033;-73
2021/03/06 06:17:58;;;;;;;21.23;11.73;;;2.80;99.90;;;;;;5036786;28;20042;-73
2021/03/06 06:20:24;;;;;;;19.17;12.13;;;2.90;99.90;;;;;;5036329;28;20120;-73
2021/03/06 06:23:10;;;;;;;22.92;11.75;;;3.10;99.90;;;;;;5036403;28;20114;-73
2021/03/06 06:25:36;;;;;;;20.77;12.20;;;3.30;99.90;;;;;;5036304;28;20053;-73
2021/03/06 06:28:04;;;;;;;19.27;11.20;;;3.30;99.90;;;;;;5036353;28;20041;-73
2021/03/06 06:30:30;;;;;;;22.90;12.32;;;3.40;99.90;;;;;;5036778;28;20041;-73
2021/03/06 06:32:56;;;;;;;17.58;10.57;;;3.40;99.90;;;;;;5036179;28;20049;-73
2021/03/06 06:35:22;;;;;;;20.02;11.80;;;3.40;99.90;;;;;;5036371;28;20071;-73
2021/03/06 06:38:03;;;;;;;21.63;11.73;;;3.50;99.90;;;;;;5036710;28;20075;-73
2021/03/06 06:40:36;;;;;;;20.27;11.13;;;3.60;99.90;;;;;;5036402;28;20037;-73
2021/03/06 06:43:21;;;;;;;20.35;12.32;;;3.50;99.90;;;;;;5018033;28;20073;-73
2021/03/06 06:45:47;;;;;;;21.45;11.20;;;3.60;99.90;;;;;;5036300;28;20036;-73
2021/03/06 06:48:13;;;;;;;21.63;11.02;;;3.80;99.90;;;;;;5036230;28;20049;-73
2021/03/06 06:50:39;;;;;;;18.25;11.50;;;3.90;99.90;;;;;;5036008;28;20138;-73
2021/03/06 06:53:05;;;;;;;18.52;10.88;;;4.00;99.90;;;;;;5035919;28;20037;-73
2021/03/06 06:55:42;;;;;;;14.75;10.30;;;4.00;99.90;;;;;;5035801;28;20108;-74
2021/03/06 06:58:08;;;;;;;22.75;10.02;;;4.10;99.90;;;;;;5035735;28;20500;-74
2021/03/06 07:00:34;;;;;;;19.05;10.85;;;4.30;99.90;;;;;;5035848;28;20132;-73
2021/03/06 07:03:05;;;;;;;22.92;11.27;;;4.10;99.90;;;;;;5035902;28;20045;-73
2021/03/06 07:05:35;;;;;;;21.65;10.70;;;4.30;99.90;;;;;;5035921;28;20064;-73
2021/03/06 07:08:19;;;;;;;22.45;11.32;;;4.70;99.90;;;;;;5036007;28;20049;-74
2021/03/06 07:10:46;;;;;;;20.42;10.93;;;4.80;99.90;;;;;;5036330;28;20091;-73
2021/03/06 07:13:12;;;;;;;21.23;13.30;;;4.90;99.90;;;;;;5035248;28;20041;-73
2021/03/06 07:15:39;;;;;;;26.20;13.85;;;5.00;99.90;;;;;;5036387;28;20488;-73
2021/03/06 07:18:07;;;;;;;29.55;14.50;;;5.10;99.90;;;;;;5036135;28;20045;-73
2021/03/06 07:20:39;;;;;;;21.85;13.50;;;5.40;99.90;;;;;;5035871;28;20045;-73
2021/03/06 07:23:25;;;;;;;28.00;15.52;;;5.40;99.90;;;;;;5035855;28;20546;-73
2021/03/06 07:25:56;;;;;;;19.45;11.35;;;5.40;99.90;;;;;;5034235;28;20038;-73
2021/03/06 07:28:24;;;;;;;22.27;11.43;;;5.30;99.90;;;;;;5035907;28;20041;-73
2021/03/06 07:30:50;;;;;;;17.90;11.55;;;5.30;99.90;;;;;;5035646;28;20089;-73
2021/03/06 07:33:18;;;;;;;20.73;13.30;;;5.30;99.90;;;;;;5035322;28;20057;-73
2021/03/06 07:35:46;;;;;;;35.55;20.02;;;5.30;99.90;;;;;;5035552;28;20048;-73
2021/03/06 07:38:15;;;;;;;45.78;25.35;;;5.60;99.90;;;;;;5035235;28;20412;-73
2021/03/06 07:40:52;;;;;;;27.67;14.65;;;5.80;99.90;;;;;;5035213;28;20041;-73
2021/03/06 07:43:25;;;;;;;26.40;16.40;;;5.80;99.90;;;;;;5035913;28;20041;-73
2021/03/06 07:45:52;;;;;;;24.20;14.23;;;5.80;99.90;;;;;;5035345;28;20090;-73
2021/03/06 07:48:20;;;;;;;23.52;14.85;;;5.90;99.90;;;;;;5035251;28;20388;-74
2021/03/06 07:50:48;;;;;;;35.30;16.50;;;6.10;99.90;;;;;;5017660;28;20041;-73
2021/03/06 07:53:15;;;;;;;21.60;14.02;;;6.30;99.90;;;;;;5035032;28;20489;-74
2021/03/06 07:55:41;;;;;;;21.50;14.70;;;6.00;99.90;;;;;;5032573;28;20361;-73
2021/03/06 07:58:20;;;;;;;24.45;13.73;;;6.30;99.90;;;;;;5033203;28;20116;-73
2021/03/06 08:00:53;;;;;;;22.88;13.82;;;6.80;99.90;;;;;;5033979;28;20073;-73
2021/03/06 08:03:30;;;;;;;25.42;14.13;;;7.00;99.90;;;;;;5031602;28;20043;-73
2021/03/06 08:05:58;;;;;;;21.15;14.10;;;7.10;99.90;;;;;;5032192;28;20092;-73
2021/03/06 08:08:34;;;;;;;23.85;15.27;;;7.30;99.90;;;;;;5032914;28;20160;-74
2021/03/06 08:11:09;;;;;;;20.38;14.43;;;7.80;99.90;;;;;;5033995;28;20366;-73
2021/03/06 08:13:54;;;;;;;19.83;12.93;;;8.00;99.90;;;;;;5034050;28;20048;-73
2021/03/06 08:16:23;;;;;;;21.33;10.77;;;8.10;99.90;;;;;;5016656;28;20401;-73
2021/03/06 08:18:52;;;;;;;19.35;12.13;;;8.10;99.90;;;;;;5016503;28;20049;-73
2021/03/06 08:21:28;;;;;;;21.75;12.60;;;8.10;99.90;;;;;;5008022;28;20582;-73
2021/03/06 08:24:12;;;;;;;27.55;15.20;;;8.10;99.90;;;;;;5026960;28;20045;-73
2021/03/06 08:27:01;;;;;;;16.60;12.05;;;8.30;99.90;;;;;;5033287;28;20080;-73
2021/03/06 08:29:27;;;;;;;25.42;11.98;;;8.50;99.90;;;;;;5019514;28;20041;-73
2021/03/06 08:32:07;;;;;;;23.10;14.27;;;8.50;99.90;;;;;;5033678;28;20516;-73
2021/03/06 08:34:37;;;;;;;23.38;14.07;;;8.80;99.90;;;;;;5033363;28;20550;-73
2021/03/06 08:37:15;;;;;;;18.45;12.35;;;9.00;99.90;;;;;;5033094;28;20033;-73
2021/03/06 08:39:46;;;;;;;26.55;11.88;;;8.80;99.90;;;;;;5032221;28;20053;-73
2021/03/06 08:42:13;;;;;;;17.33;11.65;;;9.00;99.90;;;;;;5031681;28;20092;-73
2021/03/06 08:44:39;;;;;;;18.38;12.80;;;8.90;99.90;;;;;;5032969;28;20110;-73
2021/03/06 08:47:29;;;;;;;16.95;11.90;;;8.90;99.90;;;;;;5033002;28;20500;-74
2021/03/06 08:50:00;;;;;;;16.60;10.63;;;8.90;99.90;;;;;;5022861;28;20128;-73
2021/03/06 08:52:28;;;;;;;18.48;11.43;;;9.20;99.90;;;;;;5031312;28;20052;-74
2021/03/06 08:54:55;;;;;;;14.88;10.73;;;9.40;99.90;;;;;;5032768;28;20033;-74
2021/03/06 08:57:37;;;;;;;25.02;12.13;;;9.60;99.90;;;;;;5032036;28;20037;-74
2021/03/06 09:00:24;;;;;;;26.77;15.32;;;9.80;99.90;;;;;;5032172;28;20106;-73
2021/03/06 09:02:56;;;;;;;17.10;10.23;;;10.00;99.90;;;;;;5032012;28;20049;-73
2021/03/06 09:06:10;;;;;;;21.98;12.55;;;10.20;99.90;;;;;;5030109;28;20046;-73
2021/03/06 09:08:36;;;;;;;15.30;11.35;;;10.20;99.90;;;;;;5009532;28;20053;-73
2021/03/06 09:35:00;;;;;;;29.50;20.30;;;11.40;99.90;;;;;;4935344;29;20578;-75
2021/03/06 09:37:45;;;;;;;89.30;77.22;;;11.50;99.90;;;;;;4937691;28;20071;-74
2021/03/06 09:43:56;;;;;;;59.85;44.85;;;11.40;99.90;;;;;;4932466;29;20047;-74
2021/03/06 09:46:29;;;;;;;20.48;11.98;;;11.60;99.90;;;;;;4927838;29;20040;-74
2021/03/06 09:49:13;;;;;;;;;;;;;;;;;;;;;
2021/03/06 09:54:47;;;;;;;509.50;374.65;;;12.00;99.90;;;;;;4974595;28;20030;-74
2021/03/06 09:57:34;;;;;;;;;;;12.20;99.90;;;;;;4974938;28;20026;-74
2021/03/06 10:02:57;;;;;;;15.90;10.07;;;12.30;99.90;;;;;;4956805;28;20034;-74
2021/03/06 10:05:23;;;;;;;14.20;8.63;;;12.20;99.90;;;;;;4973576;28;20540;-74
2021/03/06 10:08:51;;;;;;;74.38;51.35;;;12.20;99.90;;;;;;4994270;28;20100;-74
2021/03/06 10:11:17;;;;;;;15.88;11.23;;;12.30;99.90;;;;;;5033037;28;20516;-74
2021/03/06 10:13:45;;;;;;;89.53;69.10;;;12.30;99.90;;;;;;5035231;28;20041;-74
2021/03/06 10:16:21;;;;;;;92.22;55.28;;;12.30;99.90;;;;;;5035487;28;20038;-74
2021/03/06 10:18:48;;;;;;;14.65;10.27;;;12.50;99.90;;;;;;5035630;28;20435;-74
2021/03/06 10:21:51;;;;;;;13.32;7.90;;;12.60;99.90;;;;;;5036139;28;20120;-74
2021/03/06 10:24:22;;;;;;;21.20;12.43;;;13.00;99.90;;;;;;4974426;28;20078;-73
2021/03/06 10:27:00;;;;;;;14.43;8.85;;;13.00;99.90;;;;;;5023731;28;20496;-73
2021/03/06 10:29:43;;;;;;;18.90;11.38;;;13.10;99.90;;;;;;5034608;28;20041;-74
2021/03/06 10:32:09;;;;;;;13.73;7.95;;;13.40;99.90;;;;;;5035095;28;20496;-73
2021/03/06 10:34:36;;;;;;;15.07;8.13;;;13.10;99.90;;;;;;5033853;28;20048;-73
2021/03/06 10:37:17;;;;;;;25.05;15.30;;;12.90;99.90;;;;;;5035134;28;20404;-73
2021/03/06 10:40:12;;;;;;;145.98;110.43;;;12.90;99.90;;;;;;5031514;28;20056;-74
2021/03/06 10:42:45;;;;;;;28.83;20.52;;;12.90;99.90;;;;;;5029311;28;20079;-73
2021/03/06 10:45:32;;;;;;;41.63;31.70;;;12.80;99.90;;;;;;5030812;28;20045;-73
2021/03/06 10:48:03;;;;;;;19.67;11.90;;;12.60;99.90;;;;;;5032279;28;20176;-73
2021/03/06 10:50:40;;;;;;;27.17;19.27;;;12.60;99.90;;;;;;5028109;28;20038;-73
2021/03/06 10:53:16;;;;;;;33.83;24.67;;;12.70;99.90;;;;;;5028368;28;20037;-74
2021/03/06 10:55:47;;;;;;;15.75;11.38;;;12.90;99.90;;;;;;5030694;28;20516;-74
2021/03/06 10:58:13;;;;;;;19.05;12.38;;;13.00;99.90;;;;;;5028558;28;20076;-73
2021/03/06 11:00:41;;;;;;;16.08;10.30;;;12.90;99.90;;;;;;5031380;28;20081;-73
2021/03/06 11:03:12;;;;;;;15.25;10.15;;;13.00;99.90;;;;;;5032305;28;20029;-74
2021/03/06 11:05:42;;;;;;;17.23;10.43;;;13.00;99.90;;;;;;5015056;28;20041;-74
2021/03/06 11:08:19;;;;;;;14.52;9.38;;;13.40;99.90;;;;;;5032396;28;20053;-73
2021/03/06 11:10:51;;;;;;;12.88;8.75;;;13.70;99.90;;;;;;5033166;28;20077;-74
2021/03/06 11:13:18;;;;;;;14.70;8.43;;;13.40;99.90;;;;;;5034085;28;20063;-74
2021/03/06 11:15:53;;;;;;;14.52;8.15;;;13.50;99.10;;;;;;5034596;28;20033;-74
2021/03/06 11:18:19;;;;;;;16.17;8.18;;;13.40;98.80;;;;;;5034442;28;20124;-74
2021/03/06 11:20:47;;;;;;;15.18;8.23;;;14.00;96.70;;;;;;5034259;28;20049;-74
2021/03/06 11:23:13;;;;;;;10.85;7.07;;;14.20;95.40;;;;;;5034097;28;20037;-74
2021/03/06 11:25:40;;;;;;;14.75;7.90;;;13.80;97.00;;;;;;5033292;28;20041;-74
2021/03/06 11:28:08;;;;;;;13.07;9.15;;;13.40;99.90;;;;;;5033086;28;20042;-74
2021/03/06 11:30:36;;;;;;;12.27;8.45;;;12.90;99.90;;;;;;5032106;28;20087;-74
2021/03/06 11:33:04;;;;;;;13.68;8.35;;;12.60;99.90;;;;;;5033061;28;20046;-74
2021/03/06 11:35:30;;;;;;;12.25;8.57;;;12.50;99.90;;;;;;5032927;28;20038;-74
2021/03/06 11:37:57;;;;;;;13.63;9.18;;;12.60;99.90;;;;;;5033509;28;20084;-74
2021/03/06 11:40:27;;;;;;;14.38;9.95;;;12.60;99.90;;;;;;5033380;28;20072;-72
2021/03/06 11:42:53;;;;;;;22.30;10.90;;;12.40;99.90;;;;;;5033308;28;20167;-72
2021/03/06 11:45:21;;;;;;;25.52;15.88;;;12.20;99.90;;;;;;5033878;28;20048;-74
2021/03/06 11:47:49;;;;;;;27.80;15.55;;;12.30;99.90;;;;;;5033792;28;20040;-74
2021/03/06 11:50:17;;;;;;;20.95;12.82;;;12.40;99.90;;;;;;5034159;28;20068;-74
2021/03/06 11:52:44;;;;;;;23.17;13.50;;;12.60;99.90;;;;;;5034267;28;20049;-74
2021/03/06 11:55:12;;;;;;;22.13;12.88;;;12.80;99.90;;;;;;5034748;28;20124;-74
2021/03/06 11:57:39;;;;;;;20.83;13.05;;;13.10;99.90;;;;;;5034582;28;20037;-74
2021/03/06 12:00:13;;;;;;;18.90;12.50;;;13.50;99.90;;;;;;5034605;28;20049;-72
2021/03/06 12:02:39;;;;;;;15.35;10.73;;;13.40;99.90;;;;;;5034763;28;20503;-74
2021/03/06 12:05:07;;;;;;;15.50;10.60;;;12.90;99.90;;;;;;5033574;28;20049;-74
2021/03/06 12:07:34;;;;;;;21.30;11.00;;;12.70;99.90;;;;;;5034491;28;20112;-73
2021/03/06 12:09:59;;;;;;;14.05;10.07;;;12.70;99.90;;;;;;5032935;28;20057;-74
2021/03/06 12:12:26;;;;;;;23.88;11.30;;;12.90;99.90;;;;;;5033341;28;20061;-74
2021/03/06 12:14:52;;;;;;;19.90;11.02;;;13.20;99.90;;;;;;5032132;28;20048;-73
2021/03/06 12:17:52;;;;;;;20.10;11.18;;;13.20;99.90;;;;;;5031830;28;20508;-76
2021/03/06 12:20:19;;;;;;;23.45;13.75;;;13.20;99.90;;;;;;4978173;28;20128;-75
2021/03/06 12:22:46;;;;;;;21.85;12.05;;;13.40;99.90;;;;;;5032400;28;20409;-75
2021/03/06 12:25:13;;;;;;;22.58;14.70;;;13.50;99.90;;;;;;5033962;28;20077;-75
2021/03/06 12:27:40;;;;;;;23.17;13.18;;;13.30;99.90;;;;;;5033513;28;20044;-75
2021/03/06 12:30:10;;;;;;;19.55;11.07;;;13.30;99.90;;;;;;5029689;28;20061;-75
2021/03/06 12:32:40;;;;;;;15.82;10.32;;;13.30;99.90;;;;;;5031882;28;20037;-74
2021/03/06 12:35:08;;;;;;;17.42;10.23;;;13.20;99.90;;;;;;5033240;28;20563;-75
2021/03/06 12:37:34;;;;;;;15.45;9.48;;;13.20;99.90;;;;;;5031994;28;20033;-75
2021/03/06 12:40:04;;;;;;;382.63;304.05;;;13.30;99.90;;;;;;5029628;28;20049;-75
2021/03/06 12:42:29;;;;;;;24.48;17.33;;;13.30;99.90;;;;;;5031903;28;20069;-75
2021/03/06 12:44:55;;;;;;;24.75;13.20;;;13.40;99.90;;;;;;5032362;28;20512;-76
2021/03/06 12:47:21;;;;;;;24.55;11.63;;;13.10;99.90;;;;;;5024680;28;20049;-76
2021/03/06 12:49:47;;;;;;;19.75;10.00;;;13.30;99.90;;;;;;5029336;28;20587;-76
2021/03/06 12:52:16;;;;;;;20.75;12.65;;;13.30;99.90;;;;;;5030937;28;20049;-75
2021/03/06 12:54:43;;;;;;;31.85;19.48;;;13.40;99.90;;;;;;5034920;28;20128;-76
2021/03/06 12:57:09;;;;;;;18.98;11.15;;;13.50;99.90;;;;;;5035752;28;20041;-75
2021/03/06 12:59:35;;;;;;;152.05;136.20;;;13.60;99.90;;;;;;5033879;28;20187;-76
2021/03/06 13:02:00;;;;;;;36.35;27.00;;;13.60;99.90;;;;;;5035023;28;20136;-76
2021/03/06 13:04:26;;;;;;;20.83;11.20;;;13.60;99.90;;;;;;5033750;28;20030;-75
2021/03/06 13:06:56;;;;;;;423.80;377.75;;;13.60;99.90;;;;;;5035001;28;20041;-75
2021/03/06 13:09:23;;;;;;;91.38;74.35;;;13.90;99.90;;;;;;5035232;28;20049;-76
2021/03/06 13:11:49;;;;;;;34.30;27.67;;;13.90;99.90;;;;;;5035772;28;20256;-75
2021/03/06 13:14:15;;;;;;;22.63;11.35;;;14.00;99.90;;;;;;5035721;28;20535;-75
2021/03/06 13:16:41;;;;;;;17.38;9.63;;;14.30;99.90;;;;;;5030957;28;20044;-75
2021/03/06 13:19:07;;;;;;;19.23;10.98;;;14.00;99.90;;;;;;5030208;28;20072;-75
2021/03/06 13:21:34;;;;;;;28.40;16.73;;;14.10;99.90;;;;;;5034031;28;20046;-76
2021/03/06 13:23:59;;;;;;;138.43;101.35;;;14.30;99.90;;;;;;5034634;28;20041;-75